This is the latest recevied weather packets stored in our database for station/object IU3NMQ-10. If no packets are shown the sender has not sent any weather packets the latest 10 day(s).
| Time | Temp. | Humidity | Pressure | Rain* | Wind** | Luminosity | Snow |
|---|---|---|---|---|---|---|---|
| 1778084847 | 17.78° C | 83% | 1007.2 hPa | - | - | - | - |
| 1778084316 | 17.78° C | 83% | 1007.2 hPa | - | - | - | - |
| 1778083416 | 18.33° C | 82% | 1007.1 hPa | - | - | - | - |
| 1778082516 | 18.89° C | 82% | 1007.1 hPa | - | - | - | - |
| 1778081616 | 17.78° C | 85% | 1007 hPa | - | - | - | - |
| 1778080713 | 17.78° C | 86% | 1007.2 hPa | - | - | - | - |
| 1778079813 | 17.22° C | 90% | 1007.2 hPa | - | - | - | - |
| 1778078912 | 16.67° C | 90% | 1007.6 hPa | - | - | - | - |
| 1778068022 | 17.78° C | 86% | 1008.2 hPa | - | - | - | - |
| 1778067122 | 17.78° C | 86% | 1008.3 hPa | - | - | - | - |
| 1778066222 | 17.78° C | 85% | 1008.2 hPa | - | - | - | - |
| 1778065322 | 17.22° C | 86% | 1008.3 hPa | - | - | - | - |
| 1778064422 | 17.78° C | 85% | 1008.4 hPa | - | - | - | - |
| 1778063790 | 17.22° C | 85% | 1008.5 hPa | - | - | - | - |
| 1778063521 | 17.22° C | 85% | 1008.5 hPa | - | - | - | - |
| 1778063007 | 17.78° C | 84% | 1008.5 hPa | - | - | - | - |
| 1778062687 | 17.78° C | 84% | 1008.5 hPa | - | - | - | - |
| 1778062621 | 17.78° C | 84% | 1008.5 hPa | - | - | - | - |
| 1778061721 | 17.78° C | 85% | 1008.5 hPa | - | - | - | - |
| 1778060821 | 18.33° C | 85% | 1008.4 hPa | - | - | - | - |
| 1778059921 | 18.33° C | 85% | 1008.5 hPa | - | - | - | - |
| 1778059054 | 17.78° C | 86% | 1008.4 hPa | - | - | - | - |
| 1778059021 | 17.78° C | 86% | 1008.4 hPa | - | - | - | - |
| 1778058121 | 17.78° C | 86% | 1008.4 hPa | - | - | - | - |
| 1778057221 | 17.22° C | 86% | 1008.2 hPa | - | - | - | - |
* Rain since midnight (hover to see other rain measurements)
** Current wind speed in m/s (hover to see current wind gust speed)